createdAt,value
2017-01-02T00:00:31.125Z,0
2017-01-02T00:01:30.378Z,0
2017-01-02T00:02:30.832Z,0
2017-01-02T00:03:31.237Z,0
2017-01-02T00:04:30.696Z,0
2017-01-02T00:05:31.149Z,0
2017-01-02T00:06:30.410Z,0
2017-01-02T00:07:32.669Z,0
2017-01-02T00:08:30.831Z,0
2017-01-02T00:09:31.984Z,0
2017-01-02T00:10:31.980Z,0
2017-01-02T00:11:31.242Z,0
2017-01-02T00:12:30.506Z,0
2017-01-02T00:13:31.253Z,0
2017-01-02T00:14:30.948Z,0
2017-01-02T00:15:31.618Z,0
2017-01-02T00:16:30.832Z,0
2017-01-02T00:17:30.837Z,0
2017-01-02T00:18:32.572Z,0
2017-01-02T00:19:31.495Z,0
2017-01-02T00:20:32.309Z,0
2017-01-02T00:21:31.704Z,0
2017-01-02T00:22:31.624Z,0
2017-01-02T00:23:30.510Z,0
2017-01-02T00:24:30.892Z,0
2017-01-02T00:25:30.445Z,0
2017-01-02T00:26:31.295Z,0
2017-01-02T00:27:30.859Z,0
2017-01-02T00:28:31.314Z,0
2017-01-02T00:29:30.574Z,0
2017-01-02T00:30:30.535Z,0
2017-01-02T00:31:32.176Z,0
2017-01-02T00:32:31.341Z,0
2017-01-02T00:33:31.804Z,0
2017-01-02T00:34:31.412Z,0
2017-01-02T00:35:30.916Z,0
2017-01-02T00:36:30.995Z,0
2017-01-02T00:37:31.830Z,0
2017-01-02T00:38:30.989Z,0
2017-01-02T00:39:31.047Z,0
2017-01-02T00:40:31.503Z,0
2017-01-02T00:41:31.455Z,0
2017-01-02T00:42:32.762Z,0
2017-01-02T00:43:30.574Z,0
2017-01-02T00:44:32.034Z,0
2017-01-02T00:45:31.428Z,0
2017-01-02T00:46:30.601Z,0
2017-01-02T00:47:31.159Z,0
2017-01-02T00:48:31.458Z,0
2017-01-02T00:49:30.616Z,0
2017-01-02T00:50:31.028Z,0
2017-01-02T00:51:30.287Z,0
2017-01-02T00:52:31.429Z,0
2017-01-02T00:53:32.620Z,0
2017-01-02T00:54:30.799Z,0
2017-01-02T00:55:32.211Z,0
2017-01-02T00:56:31.560Z,0
2017-01-02T00:57:31.218Z,0
2017-01-02T00:58:31.188Z,0
2017-01-02T00:59:31.581Z,0
2017-01-02T01:00:31.600Z,0
2017-01-02T01:01:30.461Z,0
2017-01-02T01:02:31.333Z,0
2017-01-02T01:03:31.271Z,0
2017-01-02T01:04:30.824Z,0
2017-01-02T01:05:31.279Z,0
2017-01-02T01:06:32.696Z,0
2017-01-02T01:07:30.797Z,0
2017-01-02T01:08:30.911Z,0
2017-01-02T01:09:31.556Z,0
2017-01-02T01:10:31.323Z,0
2017-01-02T01:11:31.173Z,0
2017-01-02T01:12:31.232Z,0
2017-01-02T01:13:30.998Z,0
2017-01-02T01:14:31.227Z,0
2017-01-02T01:15:33.125Z,0
2017-01-02T01:16:31.606Z,0
2017-01-02T01:17:32.810Z,0
2017-01-02T01:18:31.273Z,0
2017-01-02T01:19:30.539Z,0
2017-01-02T01:20:30.547Z,0
2017-01-02T01:21:31.690Z,0
2017-01-02T01:22:31.354Z,0
2017-01-02T01:23:30.915Z,0
2017-01-02T01:24:31.319Z,0
2017-01-02T01:25:31.374Z,0
2017-01-02T01:26:31.776Z,0
2017-01-02T01:27:30.944Z,0
2017-01-02T01:28:32.964Z,0
2017-01-02T01:29:31.746Z,0
2017-01-02T01:30:32.198Z,0
2017-01-02T01:31:32.206Z,0
2017-01-02T01:32:30.975Z,0
2017-01-02T01:33:30.984Z,0
2017-01-02T01:34:31.391Z,0
2017-01-02T01:35:32.256Z,0
2017-01-02T01:36:31.747Z,0
2017-01-02T01:37:32.452Z,0
2017-01-02T01:38:32.354Z,0
2017-01-02T01:39:33.314Z,0
2017-01-02T01:40:31.928Z,0
2017-01-02T01:41:31.382Z,0
2017-01-02T01:42:30.999Z,0
2017-01-02T01:43:31.501Z,0
2017-01-02T01:44:31.503Z,0
2017-01-02T01:45:31.565Z,0
2017-01-02T01:46:31.675Z,0
2017-01-02T01:47:32.323Z,0
2017-01-02T01:48:31.540Z,0
2017-01-02T01:49:32.292Z,0
2017-01-02T01:50:33.503Z,0
2017-01-02T01:51:31.911Z,0
2017-01-02T01:52:32.012Z,0
2017-01-02T01:53:32.314Z,0
2017-01-02T01:54:31.591Z,0
2017-01-02T01:55:31.048Z,0
2017-01-02T01:56:32.439Z,0
2017-01-02T01:57:32.799Z,0
2017-01-02T01:58:31.564Z,0
2017-01-02T01:59:32.406Z,0
2017-01-02T02:00:31.678Z,0
2017-01-02T02:01:31.884Z,0
2017-01-02T02:02:31.590Z,0
2017-01-02T02:03:31.994Z,0
2017-01-02T02:04:32.300Z,0
2017-01-02T02:05:32.006Z,0
2017-01-02T02:06:32.407Z,0
2017-01-02T02:07:31.228Z,0
2017-01-02T02:08:32.286Z,0
2017-01-02T02:09:31.743Z,0
2017-01-02T02:10:32.801Z,0
2017-01-02T02:11:32.053Z,0
2017-01-02T02:12:31.719Z,0
2017-01-02T02:13:32.063Z,0
2017-01-02T02:14:32.074Z,0
2017-01-02T02:15:31.338Z,0
2017-01-02T02:16:31.393Z,0
2017-01-02T02:17:31.749Z,0
2017-01-02T02:18:31.253Z,0
2017-01-02T02:19:32.746Z,0
2017-01-02T02:20:31.719Z,0
2017-01-02T02:21:32.777Z,0
2017-01-02T02:22:32.229Z,0
2017-01-02T02:23:31.739Z,0
2017-01-02T02:24:32.144Z,0
2017-01-02T02:25:32.149Z,0
2017-01-02T02:26:31.710Z,0
2017-01-02T02:27:31.321Z,0
2017-01-02T02:28:32.219Z,0
2017-01-02T02:29:31.435Z,0
2017-01-02T02:30:31.454Z,0
2017-01-02T02:31:32.193Z,0
2017-01-02T02:32:33.252Z,0
2017-01-02T02:33:32.606Z,0
2017-01-02T02:34:32.167Z,0
2017-01-02T02:35:31.879Z,0
2017-01-02T02:36:31.836Z,0
2017-01-02T02:37:32.679Z,0
2017-01-02T02:38:31.943Z,0
2017-01-02T02:39:32.196Z,0
2017-01-02T02:40:31.913Z,0
2017-01-02T02:41:32.661Z,0
2017-01-02T02:42:32.281Z,0
2017-01-02T02:43:33.633Z,0
2017-01-02T02:44:31.939Z,0
2017-01-02T02:45:32.842Z,0
2017-01-02T02:46:31.757Z,0
2017-01-02T02:47:32.408Z,0
2017-01-02T02:48:32.314Z,0
2017-01-02T02:49:31.976Z,0
2017-01-02T02:50:32.378Z,0
2017-01-02T02:51:32.688Z,0
2017-01-02T02:52:31.528Z,0
2017-01-02T02:53:32.058Z,0
2017-01-02T02:54:33.819Z,0
2017-01-02T02:55:31.917Z,0
2017-01-02T02:56:32.673Z,0
2017-01-02T02:57:32.374Z,0
2017-01-02T02:58:32.437Z,0
2017-01-02T02:59:32.046Z,0
2017-01-02T03:00:32.153Z,0
2017-01-02T03:01:32.362Z,0
2017-01-02T03:02:32.117Z,0
2017-01-02T03:03:31.390Z,0
2017-01-02T03:04:32.030Z,0
2017-01-02T03:05:33.990Z,0
2017-01-02T03:06:31.728Z,0
2017-01-02T03:07:33.452Z,0
2017-01-02T03:08:32.905Z,0
2017-01-02T03:09:32.118Z,0
2017-01-02T03:10:32.077Z,0
2017-01-02T03:11:31.292Z,0
2017-01-02T03:12:32.485Z,0
2017-01-02T03:13:32.105Z,0
2017-01-02T03:14:31.770Z,0
2017-01-02T03:15:32.457Z,0
2017-01-02T03:16:31.772Z,0
2017-01-02T03:17:32.128Z,0
2017-01-02T03:18:31.692Z,0
2017-01-02T03:19:32.238Z,0
2017-01-02T03:20:31.853Z,0
2017-01-02T03:21:32.648Z,0
2017-01-02T03:22:32.514Z,0
2017-01-02T03:23:32.226Z,0
2017-01-02T03:24:31.827Z,0
2017-01-02T03:25:31.934Z,0
2017-01-02T03:26:32.148Z,0
2017-01-02T03:27:31.603Z,0
2017-01-02T03:29:16.393Z,0
2017-01-02T03:29:33.334Z,0
2017-01-02T03:30:32.167Z,0
2017-01-02T03:31:31.825Z,0
2017-01-02T03:32:32.925Z,0
2017-01-02T03:33:32.290Z,0
2017-01-02T03:34:32.293Z,0
2017-01-02T03:35:31.464Z,0
2017-01-02T03:36:32.963Z,0
2017-01-02T03:37:32.271Z,0
2017-01-02T03:38:32.381Z,0
2017-01-02T03:39:31.836Z,0
2017-01-02T03:40:32.590Z,0
2017-01-02T03:41:31.950Z,0
2017-01-02T03:42:33.148Z,0
2017-01-02T03:43:33.102Z,0
2017-01-02T03:44:31.973Z,0
2017-01-02T03:45:33.162Z,0
2017-01-02T03:46:32.832Z,0
2017-01-02T03:47:33.196Z,0
2017-01-02T03:48:32.000Z,0
2017-01-02T03:49:32.826Z,0
2017-01-02T03:50:32.781Z,0
2017-01-02T03:51:32.783Z,0
2017-01-02T03:52:32.867Z,0
2017-01-02T03:53:32.377Z,0
2017-01-02T03:54:32.441Z,0
2017-01-02T03:55:32.444Z,0
2017-01-02T03:56:32.850Z,0
2017-01-02T03:57:32.429Z,0
2017-01-02T03:58:33.714Z,0
2017-01-02T03:59:32.403Z,0
2017-01-02T04:00:33.025Z,0
2017-01-02T04:01:33.179Z,0
2017-01-02T04:02:32.838Z,0
2017-01-02T04:03:32.057Z,0
2017-01-02T04:04:32.510Z,0
2017-01-02T04:05:32.909Z,0
2017-01-02T04:06:32.471Z,0
2017-01-02T04:07:33.324Z,0
2017-01-02T04:08:32.484Z,0
2017-01-02T04:09:34.095Z,0
2017-01-02T04:10:32.517Z,0
2017-01-02T04:11:33.409Z,0
2017-01-02T04:12:32.076Z,0
2017-01-02T04:13:32.623Z,0
2017-01-02T04:14:32.930Z,0
2017-01-02T04:15:32.982Z,0
2017-01-02T04:16:32.942Z,0
2017-01-02T04:17:32.555Z,0
2017-01-02T04:18:32.123Z,0
2017-01-02T04:19:33.014Z,0
2017-01-02T04:20:33.673Z,0
2017-01-02T04:21:32.976Z,0
2017-01-02T04:22:33.637Z,0
2017-01-02T04:23:32.574Z,0
2017-01-02T04:24:32.810Z,0
2017-01-02T04:25:32.267Z,0
2017-01-02T04:26:33.061Z,0
2017-01-02T04:27:33.998Z,0
2017-01-02T04:28:33.076Z,0
2017-01-02T04:29:32.295Z,0
2017-01-02T04:30:31.848Z,0
2017-01-02T04:31:34.466Z,0
2017-01-02T04:32:31.862Z,0
2017-01-02T04:33:34.169Z,0
2017-01-02T04:34:32.701Z,0
2017-01-02T04:35:33.336Z,0
2017-01-02T04:36:33.630Z,0
2017-01-02T04:37:33.090Z,0
2017-01-02T04:38:32.357Z,0
2017-01-02T04:39:33.102Z,0
2017-01-02T04:40:33.208Z,0
2017-01-02T04:41:33.124Z,0
2017-01-02T04:42:33.107Z,0
2017-01-02T04:43:33.134Z,0
2017-01-02T04:44:34.039Z,0
2017-01-02T04:45:32.406Z,0
2017-01-02T04:46:33.748Z,0
2017-01-02T04:47:33.209Z,0
2017-01-02T04:48:32.371Z,0
2017-01-02T04:49:32.336Z,0
2017-01-02T04:50:33.582Z,0
2017-01-02T04:51:32.848Z,0
2017-01-02T04:52:33.248Z,0
2017-01-02T04:53:33.208Z,0
2017-01-02T04:54:32.816Z,0
2017-01-02T04:55:34.681Z,0
2017-01-02T04:56:32.829Z,0
2017-01-02T04:57:34.029Z,0
2017-01-02T04:59:01.860Z,0
2017-01-02T04:59:32.900Z,0
2017-01-02T05:00:33.201Z,0
2017-01-02T05:01:32.464Z,0
2017-01-02T05:02:32.865Z,0
2017-01-02T05:03:32.875Z,0
2017-01-02T05:04:32.844Z,0
2017-01-02T05:05:33.284Z,0
2017-01-02T05:06:32.616Z,0
2017-01-02T05:07:33.644Z,0
2017-01-02T05:08:32.859Z,0
2017-01-02T05:09:33.767Z,0
2017-01-02T05:10:33.766Z,0
2017-01-02T05:11:33.329Z,0
2017-01-02T05:12:32.888Z,0
2017-01-02T05:13:32.550Z,0
2017-01-02T05:14:32.609Z,0
2017-01-02T05:15:33.264Z,0
2017-01-02T05:16:32.948Z,0
2017-01-02T05:17:33.423Z,0
2017-01-02T05:18:33.378Z,0
2017-01-02T05:19:33.487Z,0
2017-01-02T05:20:32.554Z,0
2017-01-02T05:21:32.956Z,0
2017-01-02T05:22:33.076Z,0
2017-01-02T05:23:33.380Z,0
2017-01-02T05:24:33.915Z,0
2017-01-02T05:25:33.430Z,0
2017-01-02T05:26:33.885Z,0
2017-01-02T05:27:33.000Z,0
2017-01-02T05:28:50.084Z,0
2017-01-02T05:29:33.080Z,0
2017-01-02T05:30:33.513Z,0
2017-01-02T05:31:33.030Z,0
2017-01-02T05:32:33.481Z,0
2017-01-02T05:33:32.741Z,0
2017-01-02T05:34:33.936Z,0
2017-01-02T05:35:33.204Z,0
2017-01-02T05:36:33.506Z,0
2017-01-02T05:37:34.361Z,0
2017-01-02T05:38:32.678Z,0
2017-01-02T05:39:34.326Z,0
2017-01-02T05:40:33.191Z,0
2017-01-02T05:41:32.799Z,0
2017-01-02T05:42:32.808Z,0
2017-01-02T05:43:32.817Z,0
2017-01-02T05:44:32.824Z,0
2017-01-02T05:45:33.669Z,0
2017-01-02T05:46:33.579Z,0
2017-01-02T05:47:33.586Z,0
2017-01-02T05:48:33.197Z,0
2017-01-02T05:49:32.461Z,0
2017-01-02T05:50:35.019Z,0
2017-01-02T05:51:33.219Z,0
2017-01-02T05:52:33.274Z,0
2017-01-02T05:53:33.630Z,0
2017-01-02T05:54:33.191Z,0
2017-01-02T05:55:33.297Z,0
2017-01-02T05:56:32.807Z,0
2017-01-02T05:57:33.310Z,0
2017-01-02T05:58:35.062Z,0
2017-01-02T05:59:33.228Z,0
2017-01-02T06:00:33.387Z,0
2017-01-02T06:01:35.140Z,0
2017-01-02T06:02:33.690Z,0
2017-01-02T06:03:33.648Z,0
2017-01-02T06:04:33.424Z,0
2017-01-02T06:05:33.765Z,0
2017-01-02T06:06:32.979Z,0
2017-01-02T06:07:34.177Z,0
2017-01-02T06:08:33.344Z,0
2017-01-02T06:09:34.134Z,0
2017-01-02T06:10:33.956Z,0
2017-01-02T06:11:33.812Z,0
2017-01-02T06:12:35.693Z,0
2017-01-02T06:13:33.771Z,0
2017-01-02T06:14:33.329Z,0
2017-01-02T06:15:33.832Z,0
2017-01-02T06:16:33.868Z,0
2017-01-02T06:17:33.057Z,0
2017-01-02T06:18:34.156Z,0
2017-01-02T06:19:33.071Z,0
2017-01-02T06:20:33.029Z,0
2017-01-02T06:21:34.043Z,0
2017-01-02T06:22:33.887Z,0
2017-01-02T06:23:35.824Z,0
2017-01-02T06:24:33.901Z,0
2017-01-02T06:25:33.515Z,0
2017-01-02T06:26:33.594Z,0
2017-01-02T06:27:33.127Z,0
2017-01-02T06:28:33.531Z,0
2017-01-02T06:29:33.143Z,0
2017-01-02T06:30:34.385Z,0
2017-01-02T06:31:33.554Z,0
2017-01-02T06:32:34.254Z,0
2017-01-02T06:33:33.967Z,0
2017-01-02T06:34:33.132Z,0
2017-01-02T06:35:33.104Z,0
2017-01-02T06:36:34.330Z,0
2017-01-02T06:37:33.500Z,0
2017-01-02T06:38:33.193Z,0
2017-01-02T06:39:33.558Z,0
2017-01-02T06:40:33.911Z,0
2017-01-02T06:41:34.016Z,0
2017-01-02T06:42:33.141Z,0
2017-01-02T06:43:34.587Z,0
2017-01-02T06:44:33.251Z,0
2017-01-02T06:45:33.642Z,0
2017-01-02T06:46:33.213Z,0
2017-01-02T06:47:34.029Z,0
2017-01-02T06:48:34.018Z,0
2017-01-02T06:49:33.683Z,0
2017-01-02T06:50:34.109Z,0
2017-01-02T06:51:34.040Z,0
2017-01-02T06:52:34.094Z,0
2017-01-02T06:53:33.367Z,0
2017-01-02T06:54:35.658Z,0
2017-01-02T06:55:33.282Z,0
2017-01-02T06:56:34.480Z,0
2017-01-02T06:57:33.689Z,0
2017-01-02T06:58:33.644Z,0
2017-01-02T06:59:34.197Z,0
2017-01-02T07:00:34.151Z,0
2017-01-02T07:01:34.111Z,0
2017-01-02T07:02:33.822Z,0
2017-01-02T07:03:34.421Z,0
2017-01-02T07:04:33.766Z,0
2017-01-02T07:05:36.015Z,0
2017-01-02T07:06:34.399Z,0
2017-01-02T07:07:35.249Z,0
2017-01-02T07:08:33.320Z,0
2017-01-02T07:09:33.821Z,0
2017-01-02T07:10:32.988Z,0
2017-01-02T07:11:34.187Z,0
2017-01-02T07:12:33.479Z,0
2017-01-02T07:13:34.191Z,0
2017-01-02T07:14:34.154Z,0
2017-01-02T07:15:33.864Z,0
2017-01-02T07:16:33.727Z,0
2017-01-02T07:17:34.179Z,0
2017-01-02T07:18:35.637Z,0
2017-01-02T07:19:33.853Z,0
2017-01-02T07:20:33.802Z,0
2017-01-02T07:21:34.211Z,0
2017-01-02T07:22:33.048Z,0
2017-01-02T07:23:33.924Z,0
2017-01-02T07:24:33.827Z,0
2017-01-02T07:25:33.839Z,0
2017-01-02T07:26:34.291Z,0
2017-01-02T07:27:33.905Z,0
2017-01-02T07:28:34.306Z,0
2017-01-02T07:29:35.414Z,0
2017-01-02T07:30:34.424Z,0
2017-01-02T07:31:34.218Z,0
2017-01-02T07:32:34.335Z,0
2017-01-02T07:33:34.340Z,0
2017-01-02T07:34:33.957Z,0
2017-01-02T07:35:34.326Z,0
2017-01-02T07:36:34.169Z,0
2017-01-02T07:37:34.025Z,0
2017-01-02T07:38:34.334Z,0
2017-01-02T07:39:34.039Z,0
2017-01-02T07:40:33.945Z,0
2017-01-02T07:41:33.607Z,0
2017-01-02T07:42:33.660Z,0
2017-01-02T07:43:34.416Z,0
2017-01-02T07:44:34.024Z,0
2017-01-02T07:45:33.737Z,0
2017-01-02T07:46:34.039Z,0
2017-01-02T07:47:35.592Z,0
2017-01-02T07:48:33.658Z,0
2017-01-02T07:49:34.818Z,0
2017-01-02T07:50:34.513Z,0
2017-01-02T07:51:34.473Z,0
2017-01-02T07:52:34.212Z,0
2017-01-02T07:53:33.798Z,0
2017-01-02T07:54:34.491Z,0
2017-01-02T07:55:33.709Z,0
2017-01-02T07:56:34.066Z,0
2017-01-02T07:57:33.781Z,0
2017-01-02T07:58:35.832Z,0
2017-01-02T07:59:33.991Z,0
2017-01-02T08:00:35.258Z,0
2017-01-02T08:01:34.175Z,0
2017-01-02T08:02:34.951Z,0
2017-01-02T08:03:34.167Z,0
2017-01-02T08:04:34.623Z,0
2017-01-02T08:05:35.023Z,0
2017-01-02T08:06:33.793Z,0
2017-01-02T08:07:34.145Z,0
2017-01-02T08:08:33.813Z,0
2017-01-02T08:09:33.819Z,0
2017-01-02T08:10:34.665Z,0
2017-01-02T08:11:36.286Z,0
2017-01-02T08:12:34.236Z,0
2017-01-02T08:13:35.495Z,5
2017-01-02T08:14:33.859Z,5
2017-01-02T08:15:34.310Z,5
2017-01-02T08:16:34.221Z,5
2017-01-02T08:17:34.622Z,0
2017-01-02T08:18:34.682Z,0
2017-01-02T08:19:34.343Z,0
2017-01-02T08:20:34.701Z,5
2017-01-02T08:21:34.657Z,5
2017-01-02T08:22:36.422Z,5
2017-01-02T08:23:34.768Z,5
2017-01-02T08:24:35.705Z,5
2017-01-02T08:25:33.944Z,5
2017-01-02T08:26:33.710Z,5
2017-01-02T08:27:34.015Z,5
2017-01-02T08:28:34.859Z,5
2017-01-02T08:29:34.417Z,5
2017-01-02T08:30:34.824Z,5
2017-01-02T08:31:34.689Z,5
2017-01-02T08:32:34.766Z,5
2017-01-02T08:33:34.265Z,5
2017-01-02T08:34:34.861Z,5
2017-01-02T08:35:34.499Z,5
2017-01-02T08:36:34.032Z,5
2017-01-02T08:37:34.786Z,5
2017-01-02T08:38:35.234Z,5
2017-01-02T08:39:34.848Z,5
2017-01-02T08:40:34.113Z,5
2017-01-02T08:41:34.466Z,5
2017-01-02T08:42:34.393Z,10
2017-01-02T08:43:34.533Z,10
2017-01-02T08:44:34.645Z,5
2017-01-02T08:45:34.904Z,10
2017-01-02T08:46:34.508Z,10
2017-01-02T08:47:34.171Z,10
2017-01-02T08:48:34.901Z,10
2017-01-02T08:49:34.932Z,10
2017-01-02T08:50:35.482Z,10
2017-01-02T08:51:35.340Z,10
2017-01-02T08:52:34.958Z,10
2017-01-02T08:53:35.809Z,10
2017-01-02T08:54:34.919Z,10
2017-01-02T08:55:35.037Z,10
2017-01-02T08:56:34.196Z,15
2017-01-02T08:57:36.846Z,20
2017-01-02T08:58:34.231Z,25
2017-01-02T08:59:34.567Z,25
2017-01-02T09:00:34.177Z,25
2017-01-02T09:01:35.082Z,20
2017-01-02T09:02:33.900Z,15
2017-01-02T09:03:35.208Z,15
2017-01-02T09:04:35.310Z,20
2017-01-02T09:05:34.267Z,20
2017-01-02T09:06:35.514Z,30
2017-01-02T09:07:33.840Z,35
2017-01-02T09:08:35.136Z,30
2017-01-02T09:09:35.048Z,30
2017-01-02T09:10:35.095Z,30
2017-01-02T09:11:34.812Z,35
2017-01-02T09:12:35.170Z,40
2017-01-02T09:13:34.282Z,40
2017-01-02T09:14:34.783Z,30
2017-01-02T09:15:35.756Z,30
2017-01-02T09:16:35.099Z,30
2017-01-02T09:17:35.909Z,35
2017-01-02T09:18:34.731Z,30
2017-01-02T09:19:35.523Z,35
2017-01-02T09:20:34.495Z,40
2017-01-02T09:21:34.843Z,30
2017-01-02T09:22:35.245Z,30
2017-01-02T09:23:35.603Z,35
2017-01-02T09:24:35.129Z,35
2017-01-02T09:25:34.479Z,40
2017-01-02T09:26:34.443Z,30
2017-01-02T09:27:35.241Z,30
2017-01-02T09:28:36.251Z,35
2017-01-02T09:29:35.632Z,35
2017-01-02T09:30:35.315Z,35
2017-01-02T09:31:35.028Z,30
2017-01-02T09:32:35.280Z,25
2017-01-02T09:33:35.735Z,35
2017-01-02T09:34:34.953Z,35
2017-01-02T09:35:36.106Z,40
2017-01-02T09:36:35.414Z,50
2017-01-02T09:37:35.370Z,55
2017-01-02T09:38:35.775Z,50
2017-01-02T09:39:36.866Z,50
2017-01-02T09:40:34.946Z,60
2017-01-02T09:41:36.010Z,45
2017-01-02T09:42:34.574Z,40
2017-01-02T09:43:34.974Z,40
2017-01-02T09:44:35.426Z,50
2017-01-02T09:45:34.695Z,45
2017-01-02T09:46:35.795Z,45
2017-01-02T09:47:35.415Z,50
2017-01-02T09:48:34.970Z,45
2017-01-02T09:49:35.376Z,40
2017-01-02T09:50:35.380Z,35
2017-01-02T09:51:35.540Z,35
2017-01-02T09:52:34.751Z,35
2017-01-02T09:53:35.459Z,35
2017-01-02T09:54:35.558Z,35
2017-01-02T09:55:35.125Z,35
2017-01-02T09:56:35.430Z,35
2017-01-02T09:57:35.489Z,40
2017-01-02T09:58:35.202Z,40
2017-01-02T09:59:35.067Z,35
2017-01-02T10:00:35.219Z,35
2017-01-02T10:01:35.521Z,35
2017-01-02T10:02:35.128Z,35
2017-01-02T10:03:35.144Z,35
2017-01-02T10:04:36.001Z,35
2017-01-02T10:05:34.765Z,35
2017-01-02T10:06:35.273Z,35
2017-01-02T10:07:34.832Z,35
2017-01-02T10:08:35.532Z,35
2017-01-02T10:09:35.644Z,35
2017-01-02T10:10:36.191Z,35
2017-01-02T10:11:35.559Z,35
2017-01-02T10:12:35.770Z,35
2017-01-02T10:13:35.181Z,35
2017-01-02T10:14:34.840Z,35
2017-01-02T10:15:35.195Z,35
2017-01-02T10:16:35.602Z,35
2017-01-02T10:17:34.915Z,35
2017-01-02T10:18:34.881Z,35
2017-01-02T10:19:35.226Z,35
2017-01-02T10:20:35.691Z,35
2017-01-02T10:21:36.516Z,35
2017-01-02T10:22:34.911Z,35
2017-01-02T10:23:35.809Z,35
2017-01-02T10:24:35.280Z,35
2017-01-02T10:25:35.130Z,35
2017-01-02T10:26:35.390Z,35
2017-01-02T10:27:35.796Z,35
2017-01-02T10:28:35.750Z,35
2017-01-02T10:29:34.966Z,30
2017-01-02T10:30:35.033Z,30
2017-01-02T10:31:35.775Z,30
2017-01-02T10:32:36.693Z,30
2017-01-02T10:33:35.793Z,30
2017-01-02T10:34:36.501Z,30
2017-01-02T10:35:35.413Z,30
2017-01-02T10:36:35.816Z,30
2017-01-02T10:37:35.830Z,30
2017-01-02T10:38:35.002Z,30
2017-01-02T10:39:36.241Z,30
2017-01-02T10:40:35.452Z,30
2017-01-02T10:41:35.963Z,30
2017-01-02T10:42:35.474Z,30
2017-01-02T10:43:37.664Z,25
2017-01-02T10:44:35.834Z,25
2017-01-02T10:45:36.985Z,25
2017-01-02T10:46:35.931Z,25
2017-01-02T10:47:36.116Z,20
2017-01-02T10:48:35.965Z,20
2017-01-02T10:49:35.975Z,15
2017-01-02T10:50:35.590Z,15
2017-01-02T10:51:36.322Z,15
2017-01-02T10:52:35.559Z,15
2017-01-02T10:53:34.770Z,15
2017-01-02T10:54:36.017Z,15
2017-01-02T10:55:35.685Z,15
2017-01-02T10:56:36.898Z,15
2017-01-02T10:57:35.995Z,15
2017-01-02T10:58:36.556Z,15
2017-01-02T10:59:36.013Z,15
2017-01-02T11:00:36.021Z,15
2017-01-02T11:01:35.580Z,15
2017-01-02T11:02:35.243Z,15
2017-01-02T11:03:35.725Z,15
2017-01-02T11:04:35.610Z,15
2017-01-02T11:05:35.922Z,15
2017-01-02T11:06:36.370Z,20
2017-01-02T11:07:35.691Z,20
2017-01-02T11:08:35.738Z,20
2017-01-02T11:09:36.043Z,20
2017-01-02T11:10:36.050Z,20
2017-01-02T11:11:35.660Z,25
2017-01-02T11:12:35.328Z,25
2017-01-02T11:13:36.127Z,30
2017-01-02T11:14:35.737Z,30
2017-01-02T11:15:35.346Z,40
2017-01-02T11:16:36.305Z,40
2017-01-02T11:17:35.780Z,45
2017-01-02T11:18:36.113Z,45
2017-01-02T11:19:35.390Z,45
2017-01-02T11:20:36.180Z,45
2017-01-02T11:21:35.414Z,45
2017-01-02T11:22:35.854Z,45
2017-01-02T11:23:36.258Z,45
2017-01-02T11:24:36.611Z,45
2017-01-02T11:25:36.723Z,50
2017-01-02T11:26:36.237Z,55
2017-01-02T11:27:37.098Z,45
2017-01-02T11:28:36.255Z,45
2017-01-02T11:29:36.361Z,40
2017-01-02T11:30:35.974Z,40
2017-01-02T11:31:35.883Z,45
2017-01-02T11:32:35.840Z,45
2017-01-02T11:33:35.944Z,45
2017-01-02T11:34:35.903Z,45
2017-01-02T11:35:36.413Z,45
2017-01-02T11:36:36.370Z,45
2017-01-02T11:37:35.981Z,45
2017-01-02T11:38:37.512Z,50
2017-01-02T11:39:36.394Z,55
2017-01-02T11:40:36.854Z,55
2017-01-02T11:41:35.967Z,55
2017-01-02T11:42:36.416Z,55
2017-01-02T11:43:35.635Z,50
2017-01-02T11:44:36.436Z,45
2017-01-02T11:45:36.837Z,40
2017-01-02T11:46:36.060Z,40
2017-01-02T11:47:36.358Z,45
2017-01-02T11:48:36.366Z,45
2017-01-02T11:49:37.592Z,40
2017-01-02T11:50:36.000Z,40
2017-01-02T11:51:37.455Z,35
2017-01-02T11:52:36.060Z,35
2017-01-02T11:53:36.540Z,35
2017-01-02T11:54:36.023Z,35
2017-01-02T11:55:36.848Z,35
2017-01-02T11:56:36.881Z,40
2017-01-02T11:57:36.252Z,40
2017-01-02T11:58:36.112Z,40
2017-01-02T11:59:37.008Z,40
2017-01-02T12:00:36.071Z,40
2017-01-02T12:01:37.530Z,40
2017-01-02T12:02:37.933Z,45
2017-01-02T12:03:36.626Z,55
2017-01-02T12:04:36.160Z,55
2017-01-02T12:05:36.564Z,55
2017-01-02T12:06:36.673Z,55
2017-01-02T12:07:36.133Z,50
2017-01-02T12:08:36.638Z,55
2017-01-02T12:09:36.595Z,55
2017-01-02T12:10:36.697Z,55
2017-01-02T12:11:36.516Z,55
2017-01-02T12:12:35.436Z,55
2017-01-02T12:13:36.198Z,55
2017-01-02T12:14:36.641Z,55
2017-01-02T12:15:37.749Z,55
2017-01-02T12:16:36.214Z,55
2017-01-02T12:17:36.717Z,50
2017-01-02T12:18:36.621Z,50
2017-01-02T12:19:36.262Z,50
2017-01-02T12:20:35.952Z,50
2017-01-02T12:21:37.143Z,50
2017-01-02T12:22:37.261Z,50
2017-01-02T12:23:36.818Z,50
2017-01-02T12:24:36.135Z,50
2017-01-02T12:25:35.540Z,50
2017-01-02T12:26:36.444Z,50
2017-01-02T12:27:36.697Z,50
2017-01-02T12:29:20.552Z,50
2017-01-02T12:29:36.317Z,50
2017-01-02T12:30:36.821Z,50
2017-01-02T12:31:37.228Z,50
2017-01-02T12:32:35.946Z,50
2017-01-02T12:33:37.647Z,50
2017-01-02T12:34:36.413Z,50
2017-01-02T12:35:37.260Z,45
2017-01-02T12:36:36.481Z,45
2017-01-02T12:37:36.116Z,45
2017-01-02T12:38:36.837Z,45
2017-01-02T12:39:36.792Z,40
2017-01-02T12:40:36.458Z,40
2017-01-02T12:41:36.923Z,40
2017-01-02T12:42:36.845Z,35
2017-01-02T12:43:36.081Z,35
2017-01-02T12:44:38.469Z,35
2017-01-02T12:45:36.698Z,40
2017-01-02T12:46:37.457Z,40
2017-01-02T12:47:36.699Z,45
2017-01-02T12:48:36.259Z,45
2017-01-02T12:49:37.278Z,45
2017-01-02T12:50:36.587Z,45
2017-01-02T12:51:36.545Z,45
2017-01-02T12:52:37.000Z,45
2017-01-02T12:53:36.563Z,45
2017-01-02T12:54:37.016Z,45
2017-01-02T12:55:36.584Z,45
2017-01-02T12:56:36.692Z,40
2017-01-02T12:57:38.346Z,40
2017-01-02T12:58:36.157Z,40
2017-01-02T12:59:36.331Z,40
2017-01-02T13:00:37.113Z,40
2017-01-02T13:01:36.726Z,40
2017-01-02T13:02:36.679Z,40
2017-01-02T13:03:36.243Z,35
2017-01-02T13:04:37.157Z,35
2017-01-02T13:05:36.262Z,35
2017-01-02T13:06:36.929Z,35
2017-01-02T13:07:37.135Z,35
2017-01-02T13:08:40.346Z,35
2017-01-02T13:09:36.397Z,35
2017-01-02T13:10:36.669Z,35
2017-01-02T13:11:37.203Z,35
2017-01-02T13:12:37.506Z,30
2017-01-02T13:13:37.472Z,30
2017-01-02T13:14:37.525Z,30
2017-01-02T13:15:37.992Z,30
2017-01-02T13:16:36.751Z,35
2017-01-02T13:17:37.323Z,30
2017-01-02T13:18:37.557Z,30
2017-01-02T13:19:36.932Z,30
2017-01-02T13:20:37.335Z,30
2017-01-02T13:21:36.819Z,30
2017-01-02T13:22:37.220Z,30
2017-01-02T13:23:37.199Z,25
2017-01-02T13:24:36.862Z,25
2017-01-02T13:25:36.427Z,25
2017-01-02T13:26:36.039Z,25
2017-01-02T13:27:37.682Z,25
2017-01-02T13:28:38.446Z,25
2017-01-02T13:29:36.567Z,25
2017-01-02T13:30:37.712Z,25
2017-01-02T13:31:36.871Z,25
2017-01-02T13:32:37.275Z,25
2017-01-02T13:33:36.493Z,25
2017-01-02T13:34:37.116Z,25
2017-01-02T13:35:37.300Z,25
2017-01-02T13:36:36.859Z,25
2017-01-02T13:37:36.574Z,25
2017-01-02T13:38:36.528Z,25
2017-01-02T13:39:36.996Z,25
2017-01-02T13:40:36.943Z,25
2017-01-02T13:41:38.461Z,25
2017-01-02T13:42:37.312Z,25
2017-01-02T13:43:37.414Z,25
2017-01-02T13:44:36.929Z,25
2017-01-02T13:45:37.384Z,25
2017-01-02T13:46:36.996Z,25
2017-01-02T13:47:37.701Z,25
2017-01-02T13:48:37.461Z,25
2017-01-02T13:49:37.375Z,25
2017-01-02T13:50:37.470Z,25
2017-01-02T13:51:37.184Z,25
2017-01-02T13:52:38.933Z,25
2017-01-02T13:53:37.147Z,25
2017-01-02T13:54:36.711Z,25
2017-01-02T13:55:37.471Z,25
2017-01-02T13:56:36.930Z,25
2017-01-02T13:57:37.034Z,25
2017-01-02T13:58:36.787Z,25
2017-01-02T13:59:37.895Z,25
2017-01-02T14:00:37.152Z,25
2017-01-02T14:01:37.509Z,25
2017-01-02T14:02:36.722Z,25
2017-01-02T14:03:37.524Z,25
2017-01-02T14:04:37.193Z,25
2017-01-02T14:05:37.545Z,25
2017-01-02T14:06:37.153Z,25
2017-01-02T14:07:37.904Z,20
2017-01-02T14:08:36.721Z,20
2017-01-02T14:09:37.573Z,20
2017-01-02T14:10:37.512Z,20
2017-01-02T14:11:37.585Z,20
2017-01-02T14:12:38.263Z,20
2017-01-02T14:13:37.768Z,20
2017-01-02T14:14:37.612Z,20
2017-01-02T14:15:37.968Z,20
2017-01-02T14:16:37.580Z,20
2017-01-02T14:17:36.804Z,20
2017-01-02T14:18:38.091Z,20
2017-01-02T14:19:38.044Z,20
2017-01-02T14:20:38.159Z,20
2017-01-02T14:21:36.875Z,20
2017-01-02T14:22:37.775Z,15
2017-01-02T14:23:38.736Z,15
2017-01-02T14:24:37.344Z,15
2017-01-02T14:25:38.158Z,15
2017-01-02T14:26:37.318Z,15
2017-01-02T14:27:37.773Z,15
2017-01-02T14:28:37.774Z,10
2017-01-02T14:29:37.385Z,10
2017-01-02T14:30:36.954Z,10
2017-01-02T14:31:37.312Z,10
2017-01-02T14:32:37.308Z,10
2017-01-02T14:33:37.761Z,10
2017-01-02T14:34:39.511Z,10